Terminal Aerodrome Forecast
Issued by NWS Sterling, VA

Home | Current Version | Previous Version | Text Only | Print | Product List | Glossary On
Versions: 1 2 3 4 5 6 7 8 9 10 11 12 13 14 15 16 17 18 19 20
000
FTUS41 KLWX 211447 AAA
TAFCHO
TAF AMD
KCHO 211447Z 2115/2212 28009KT P6SM FEW040
     FM211900 25012G21KT P6SM FEW070
     FM220000 23007KT P6SM FEW250=

USA.gov is the U.S. government's official web portal to all federal, state and local government web resources and services.